Current Conditions

Updated: 22-Nov-2014 4:41pm  
Summary / Temperature Wind Rain






Feels like: 63°F

1-hour difference
0.9°F 0.9°F colder than last hour.

24-hour difference
9.3°F9.3°F warmer than yesterday at this time.

  Today Yesterday
High: 65.7°F
1:34pm
54.5°F
11:19am
Low: 43.0°F
6:35am
46.6°F
11:31pm
 Wind from NNW NNW
0.1
Gust:  0.0 mph
0 Beaufort - Calm

Today: 4.0 - 11:19am
Month: 7.0 mph - Nov 19
Rain Today: 0.00 in
Current Rate (/hr): 0.00 in
Max Rate (/hr):
Rain Yesterday: 0.00 in
Storm Rain: 0.00 in
This Month: 0.17 in
Season Total: 1.08 in
Last Rain Event: 1 day ago
Humidity / Barometer Sun / Moon
Humidity: 65 Increased 3.0% in the last hour.
Dew Point: 51.0°F Increased 0.4°F in the last hour.
Barometer: 30.100 inHg  
Baro Trend: Steady
Sunrise: 6:40am
Sunset: 4:44pm
Moonrise: 7:40am
Moonset: 5:13pm
Sky Conditions UV Index
Sky: Overcast
Visibility: 10 miles
Clouds: Overcast @ 3,300 ft
Current: 0.0  None 
Saturday: 3.1  Moderate 
Sunday: 3.0  Moderate 
Air Quality Fire Danger
PM 2.5 Good
Ozone Good
Current: 6  Low 

Local Alerts Local Forecast
Local NWS Alerts
Today

Chance of
Precip
High 61
Tonight

Chance of
Precip
Low 46
Sun

Mostly
Sunny
High 61
Sun night

Mostly
Clear
Low 43
Mon

Sunny

High 63
Mon night

Clear

Low 43
Tue

Sunny

High 68

Local Radar Local Satellite Neighborhood Cam Sky Cam
Local Radar Local Satellite Neighborhood Cam Sky Cam


Nearby METAR Reports

KPTV - Porterville, California, USA
Distance from station: SSW 4mi, 7km
Updated: Sat, 22-Nov-2014 4:35pm PST
Overcast
Overcast
 Wind from NW
Wind: NW 5 mph , 7 km/h
Temperature: 63°F , 17°C
Dew Point: 45°F , 7°C
Humidity: 52%
Barometer: 30.11 inHg , 1019.6 hPa
Clouds: Overcast
Visibility: 10 miles , 16 km
Cloud details: Overcast 3300 ft
2014/11/23 00:35 KPTV 230035Z AUTO 31004KT 10SM OVC033 17/07 A3011 RMK AO1
KVIS - Visalia, California, USA
Distance from station: NW 27mi, 43km
Updated: Sat, 22-Nov-2014 4:35pm PST
Overcast
Overcast
 Wind from NW
Wind: NW 5 mph , 7 km/h
Temperature: 63°F , 17°C
Dew Point: 46°F , 8°C
Humidity: 56%
Barometer: 30.11 inHg , 1019.6 hPa
Clouds: Overcast
Visibility: 10 miles , 16 km
Cloud details: Partly cloudy 3100 ft
Mostly cloudy 4400 ft
Overcast 5500 ft
2014/11/23 00:35 KVIS 230035Z 31004KT 10SM SCT031 BKN044 OVC055 17/08 A3011 RMK AO1

Metar display script from Saratoga-Weather.org



Visitor Map

Locations of visitors to this page